Time;durP1;ratioP1;P1;durP2;ratioP2;P2;SDS_P1;SDS_P2;PMS_P1;PMS_P2;Temp;Humidity;BMP_temperature;BMP_pressure;BME280_temperature;BME280_humidity;BME280_pressure;Samples;Min_cycle;Max_cycle;Signal;HPM_P1;HPM_P2
2022/11/03 00:02:16;;;;;;;16.53;7.63;;;;;;;;;;6626362;28;20263;-81
2022/11/03 00:08:59;;;;;;;12.30;7.13;;;;;;;;;;6625744;28;20341;-82
2022/11/03 00:12:09;;;;;;;14.13;8.03;;;;;;;;;;6625715;28;20226;-82
2022/11/03 00:15:19;;;;;;;12.23;7.67;;;;;;;;;;6625646;28;20172;-83
2022/11/03 00:18:30;;;;;;;13.73;7.53;;;;;;;;;;6625948;28;20524;-82
2022/11/03 00:21:40;;;;;;;9.97;7.30;;;;;;;;;;6625175;28;20251;-82
2022/11/03 00:24:51;;;;;;;11.53;7.27;;;;;;;;;;6625418;28;20524;-82
2022/11/03 00:28:01;;;;;;;10.63;7.10;;;;;;;;;;6625719;28;20577;-82
2022/11/03 00:31:13;;;;;;;9.17;6.77;;;;;;;;;;6625632;28;20164;-82
2022/11/03 00:34:23;;;;;;;9.47;6.90;;;;;;;;;;6625074;28;20191;-82
2022/11/03 00:37:34;;;;;;;9.23;7.10;;;;;;;;;;6625098;28;20636;-82
2022/11/03 00:40:44;;;;;;;9.50;6.63;;;;;;;;;;6624706;28;20167;-82
2022/11/03 00:43:54;;;;;;;12.53;7.17;;;;;;;;;;6625053;28;20183;-82
2022/11/03 00:47:05;;;;;;;11.40;7.07;;;;;;;;;;6624282;28;20182;-82
2022/11/03 00:50:15;;;;;;;7.50;5.97;;;;;;;;;;6625848;28;20624;-82
2022/11/03 00:53:25;;;;;;;10.03;6.43;;;;;;;;;;6606847;28;20551;-82
2022/11/03 00:56:37;;;;;;;10.57;6.43;;;;;;;;;;6625021;28;20247;-82
2022/11/03 00:59:47;;;;;;;10.90;6.00;;;;;;;;;;6606471;28;20722;-82
2022/11/03 01:02:57;;;;;;;13.67;6.40;;;;;;;;;;6625223;28;20171;-83
2022/11/03 01:09:39;;;;;;;6.63;5.63;;;;;;;;;;6624676;28;20194;-82
2022/11/03 01:12:49;;;;;;;9.00;6.23;;;;;;;;;;6624157;28;20200;-82
2022/11/03 01:15:59;;;;;;;10.27;6.40;;;;;;;;;;6606393;28;20609;-82
2022/11/03 01:19:09;;;;;;;7.93;6.07;;;;;;;;;;6624433;28;20168;-82
2022/11/03 01:22:21;;;;;;;8.90;6.20;;;;;;;;;;6623614;28;20210;-82
2022/11/03 01:25:34;;;;;;;8.00;6.13;;;;;;;;;;6623550;28;20167;-82
2022/11/03 01:28:45;;;;;;;9.43;6.17;;;;;;;;;;6623485;28;20179;-82
2022/11/03 01:31:56;;;;;;;9.93;6.53;;;;;;;;;;6623749;28;20257;-82
2022/11/03 01:35:06;;;;;;;8.00;6.17;;;;;;;;;;6623616;28;20214;-82
2022/11/03 01:38:17;;;;;;;9.70;6.90;;;;;;;;;;6624291;28;20168;-82
2022/11/03 01:41:27;;;;;;;11.67;6.33;;;;;;;;;;6623193;28;20540;-82
2022/11/03 01:44:40;;;;;;;9.63;6.03;;;;;;;;;;6623380;28;20175;-82
2022/11/03 01:47:51;;;;;;;7.23;6.07;;;;;;;;;;6623056;28;20172;-82
2022/11/03 01:51:03;;;;;;;10.47;5.87;;;;;;;;;;6622897;28;20266;-82
2022/11/03 01:54:16;;;;;;;7.23;5.97;;;;;;;;;;6605229;28;20265;-82
2022/11/03 01:57:29;;;;;;;8.23;6.27;;;;;;;;;;6622570;28;20266;-82
2022/11/03 02:00:42;;;;;;;9.20;6.03;;;;;;;;;;6622237;28;20237;-82
2022/11/03 02:03:55;;;;;;;9.57;5.83;;;;;;;;;;6606174;28;20182;-82
2022/11/03 02:07:23;;;;;;;7.87;5.73;;;;;;;;;;6622507;28;20180;-82
2022/11/03 02:10:34;;;;;;;8.60;5.73;;;;;;;;;;6622717;28;20245;-82
2022/11/03 02:13:45;;;;;;;8.77;6.10;;;;;;;;;;6622300;28;20307;-82
2022/11/03 02:16:58;;;;;;;10.43;6.00;;;;;;;;;;6623818;28;20326;-82
2022/11/03 02:20:11;;;;;;;10.77;6.20;;;;;;;;;;6622912;28;20207;-81
2022/11/03 02:23:34;;;;;;;11.03;6.37;;;;;;;;;;6622960;28;20176;-81
2022/11/03 02:26:46;;;;;;;8.43;5.83;;;;;;;;;;6622574;28;20680;-81
2022/11/03 02:29:57;;;;;;;9.53;6.23;;;;;;;;;;6622101;28;20576;-82
2022/11/03 02:33:16;;;;;;;10.53;6.43;;;;;;;;;;6622410;28;20204;-82
2022/11/03 02:36:40;;;;;;;9.20;6.47;;;;;;;;;;6622728;28;20635;-82
2022/11/03 02:39:57;;;;;;;10.83;6.10;;;;;;;;;;6622333;28;20239;-82
2022/11/03 02:43:09;;;;;;;11.90;6.20;;;;;;;;;;6623457;28;20187;-82
2022/11/03 02:46:19;;;;;;;8.43;5.90;;;;;;;;;;6622198;28;20197;-82
2022/11/03 02:49:30;;;;;;;10.87;6.87;;;;;;;;;;6622183;28;20571;-82
2022/11/03 02:52:42;;;;;;;10.87;6.73;;;;;;;;;;6621790;28;20199;-82
2022/11/03 02:56:00;;;;;;;14.40;7.13;;;;;;;;;;6621753;28;20172;-82
2022/11/03 02:59:12;;;;;;;11.03;6.90;;;;;;;;;;6622223;28;20560;-82
2022/11/03 03:02:26;;;;;;;11.70;6.90;;;;;;;;;;6623038;28;20175;-82
2022/11/03 03:05:39;;;;;;;11.80;6.60;;;;;;;;;;6621337;28;20493;-82
2022/11/03 03:08:52;;;;;;;10.30;6.97;;;;;;;;;;6621898;28;20191;-82
2022/11/03 03:12:04;;;;;;;9.80;7.13;;;;;;;;;;6626196;28;20182;-82
2022/11/03 03:15:15;;;;;;;9.27;6.57;;;;;;;;;;6627201;28;20172;-82
2022/11/03 03:18:47;;;;;;;11.47;7.60;;;;;;;;;;6610120;28;20175;-82
2022/11/03 03:22:00;;;;;;;13.17;7.67;;;;;;;;;;6587161;28;20190;-82
2022/11/03 03:25:10;;;;;;;12.77;7.83;;;;;;;;;;6627335;28;20254;-82
2022/11/03 03:28:35;;;;;;;11.17;8.27;;;;;;;;;;6626872;28;20168;-81
2022/11/03 03:31:48;;;;;;;12.47;8.27;;;;;;;;;;6626399;28;20222;-83
2022/11/03 03:34:59;;;;;;;15.70;8.63;;;;;;;;;;6626234;28;20562;-82
2022/11/03 03:38:14;;;;;;;12.33;8.53;;;;;;;;;;6626213;28;20528;-82
2022/11/03 03:41:25;;;;;;;15.80;8.77;;;;;;;;;;6627283;28;20204;-82
2022/11/03 03:44:36;;;;;;;15.50;8.23;;;;;;;;;;6626050;28;20176;-82
2022/11/03 03:47:46;;;;;;;12.43;8.27;;;;;;;;;;6626401;28;20179;-82
2022/11/03 03:50:59;;;;;;;12.80;8.30;;;;;;;;;;6626323;28;20526;-82
2022/11/03 03:54:09;;;;;;;11.53;7.63;;;;;;;;;;6625980;28;20207;-81
2022/11/03 03:57:21;;;;;;;12.87;7.60;;;;;;;;;;6625865;28;20228;-81
2022/11/03 04:00:31;;;;;;;11.73;7.73;;;;;;;;;;6626258;28;20565;-81
2022/11/03 04:03:41;;;;;;;14.80;8.40;;;;;;;;;;6626022;28;20168;-81
2022/11/03 04:07:45;;;;;;;12.97;8.30;;;;;;;;;;6625546;28;20169;-81
2022/11/03 04:10:22;;;;;;;12.83;8.83;;;;;;;;;;6625194;28;20207;-81
2022/11/03 04:23:59;;;;;;;16.30;10.07;;;;;;;;;;6624693;28;20162;-81
2022/11/03 04:27:22;;;;;;;11.90;9.23;;;;;;;;;;6625790;28;20172;-81
2022/11/03 04:30:32;;;;;;;14.17;9.33;;;;;;;;;;6625357;28;20172;-82
2022/11/03 04:33:43;;;;;;;14.47;9.50;;;;;;;;;;6625549;28;20598;-82
2022/11/03 04:36:53;;;;;;;16.43;9.87;;;;;;;;;;6625120;28;20172;-83
2022/11/03 04:40:09;;;;;;;14.80;9.80;;;;;;;;;;6625478;28;20172;-83
2022/11/03 04:43:20;;;;;;;19.40;11.40;;;;;;;;;;6625769;28;20187;-83
2022/11/03 04:46:30;;;;;;;20.43;11.13;;;;;;;;;;6624723;28;20199;-83
2022/11/03 04:49:41;;;;;;;17.03;10.97;;;;;;;;;;6624521;28;20198;-82
2022/11/03 04:52:56;;;;;;;18.00;10.90;;;;;;;;;;6625097;28;20238;-82
2022/11/03 04:56:12;;;;;;;15.90;11.20;;;;;;;;;;6607115;28;20668;-82
2022/11/03 04:59:23;;;;;;;17.67;11.37;;;;;;;;;;6624817;28;20235;-81
2022/11/03 05:02:34;;;;;;;21.90;12.70;;;;;;;;;;6624514;28;20254;-82
2022/11/03 05:05:44;;;;;;;20.17;13.43;;;;;;;;;;6624723;28;20182;-81
2022/11/03 05:08:56;;;;;;;21.53;14.13;;;;;;;;;;6624324;28;20671;-81
2022/11/03 05:12:07;;;;;;;17.47;13.50;;;;;;;;;;6624485;28;20171;-81
2022/11/03 05:15:37;;;;;;;19.80;13.27;;;;;;;;;;6624217;28;20250;-81
2022/11/03 05:18:48;;;;;;;20.83;12.70;;;;;;;;;;6624809;28;20225;-82
2022/11/03 05:21:59;;;;;;;20.17;12.60;;;;;;;;;;6624053;28;20171;-81
2022/11/03 05:25:29;;;;;;;20.97;11.90;;;;;;;;;;6623962;28;20609;-81
2022/11/03 05:28:41;;;;;;;17.97;11.53;;;;;;;;;;6606874;28;20612;-81
2022/11/03 05:31:52;;;;;;;20.07;12.30;;;;;;;;;;6623779;28;20168;-81
2022/11/03 05:35:03;;;;;;;16.43;11.73;;;;;;;;;;6623577;28;20196;-81
2022/11/03 05:38:14;;;;;;;17.80;11.30;;;;;;;;;;6623856;28;20194;-81
2022/11/03 05:41:26;;;;;;;19.77;11.53;;;;;;;;;;6623824;28;20202;-81
2022/11/03 05:44:38;;;;;;;19.97;12.33;;;;;;;;;;6623373;28;20172;-81
2022/11/03 05:47:52;;;;;;;23.03;12.93;;;;;;;;;;6623018;28;20168;-81
2022/11/03 05:51:11;;;;;;;19.47;12.33;;;;;;;;;;6622908;28;20179;-81
2022/11/03 05:54:23;;;;;;;20.10;13.47;;;;;;;;;;6623176;28;20196;-81
2022/11/03 05:57:34;;;;;;;19.27;13.33;;;;;;;;;;6622890;28;20560;-81
2022/11/03 06:00:44;;;;;;;18.57;12.27;;;;;;;;;;6604922;28;20214;-81
2022/11/03 06:03:55;;;;;;;14.80;11.80;;;;;;;;;;6622935;28;20223;-80
2022/11/03 06:07:22;;;;;;;16.73;10.97;;;;;;;;;;6622849;28;20180;-81
2022/11/03 06:10:38;;;;;;;19.77;12.00;;;;;;;;;;6622804;28;20199;-81
2022/11/03 06:13:48;;;;;;;21.03;14.20;;;;;;;;;;6622287;28;20196;-82
2022/11/03 06:17:00;;;;;;;22.80;13.83;;;;;;;;;;6622769;28;20163;-82
2022/11/03 06:20:15;;;;;;;18.37;13.03;;;;;;;;;;6622379;28;20210;-82
2022/11/03 06:23:25;;;;;;;21.23;14.20;;;;;;;;;;6622664;28;20186;-82
2022/11/03 06:26:36;;;;;;;20.30;12.63;;;;;;;;;;6604729;28;20171;-82
2022/11/03 06:29:49;;;;;;;21.03;13.13;;;;;;;;;;6622499;28;20206;-82
2022/11/03 06:33:02;;;;;;;17.60;12.67;;;;;;;;;;6622022;28;20206;-82
2022/11/03 06:36:17;;;;;;;19.90;12.80;;;;;;;;;;6622774;28;20557;-81
2022/11/03 06:39:28;;;;;;;15.47;11.43;;;;;;;;;;6621977;28;20172;-81
2022/11/03 06:42:38;;;;;;;14.67;11.23;;;;;;;;;;6622713;28;20179;-81
2022/11/03 06:45:50;;;;;;;22.27;11.77;;;;;;;;;;6622217;28;20204;-81
2022/11/03 06:49:03;;;;;;;14.00;11.23;;;;;;;;;;6622045;28;20178;-81
2022/11/03 06:52:29;;;;;;;14.43;10.97;;;;;;;;;;6621973;28;20172;-81
2022/11/03 06:55:40;;;;;;;12.87;10.87;;;;;;;;;;6622834;28;20172;-81
2022/11/03 06:58:54;;;;;;;13.30;10.87;;;;;;;;;;6621404;28;20231;-81
2022/11/03 07:02:13;;;;;;;13.37;11.47;;;;;;;;;;6621780;28;20226;-81
2022/11/03 07:05:25;;;;;;;14.37;11.47;;;;;;;;;;6622725;28;20521;-81
2022/11/03 07:08:35;;;;;;;13.50;11.60;;;;;;;;;;6621615;28;20206;-81
2022/11/03 07:11:52;;;;;;;14.60;10.97;;;;;;;;;;6623158;28;20229;-81
2022/11/03 07:15:04;;;;;;;12.43;10.63;;;;;;;;;;6622724;28;20207;-81
2022/11/03 07:18:21;;;;;;;15.13;10.97;;;;;;;;;;6622636;28;20220;-81
2022/11/03 07:21:50;;;;;;;12.77;10.43;;;;;;;;;;6621838;28;20528;-81
2022/11/03 07:25:02;;;;;;;15.97;10.93;;;;;;;;;;6622146;28;20201;-80
2022/11/03 07:28:12;;;;;;;12.83;10.17;;;;;;;;;;6621223;28;20179;-80
2022/11/03 07:31:24;;;;;;;11.93;9.10;;;;;;;;;;6621330;28;20167;-80
2022/11/03 07:34:35;;;;;;;14.97;9.07;;;;;;;;;;6621690;28;20206;-80
2022/11/03 07:37:46;;;;;;;10.83;8.87;;;;;;;;;;6621210;28;20259;-82
2022/11/03 07:40:57;;;;;;;9.30;8.20;;;;;;;;;;6621581;28;20213;-80
2022/11/03 07:44:12;;;;;;;12.37;8.53;;;;;;;;;;6620917;28;20187;-79
2022/11/03 07:47:26;;;;;;;11.97;8.60;;;;;;;;;;6621743;28;20179;-79
2022/11/03 07:50:37;;;;;;;12.03;8.20;;;;;;;;;;6620843;28;20168;-79
2022/11/03 07:53:49;;;;;;;10.57;8.17;;;;;;;;;;6620761;28;20235;-79
2022/11/03 07:57:04;;;;;;;10.18;8.30;;;;;;;;;;6621476;28;20572;-80
2022/11/03 08:00:21;;;;;;;10.55;7.95;;;;;;;;;;6625635;28;20168;-81
2022/11/03 08:03:40;;;;;;;9.57;8.10;;;;;;;;;;6625679;28;20587;-80
2022/11/03 08:06:50;;;;;;;11.70;9.02;;;;;;;;;;6626128;28;20214;-80
2022/11/03 08:10:00;;;;;;;10.65;8.60;;;;;;;;;;6625452;28;20188;-80
2022/11/03 08:13:11;;;;;;;9.65;8.23;;;;;;;;;;6625765;28;20214;-81
2022/11/03 08:16:21;;;;;;;13.00;8.88;;;;;;;;;;6625519;28;20164;-80
2022/11/03 08:19:31;;;;;;;11.48;9.30;;;;;;;;;;6625805;28;20619;-80
2022/11/03 08:22:42;;;;;;;13.70;9.45;;;;;;;;;;6625052;28;20174;-80
2022/11/03 08:25:52;;;;;;;13.98;9.90;;;;;;;;;;6624972;28;20168;-79
2022/11/03 08:29:02;;;;;;;11.68;9.60;;;;;;;;;;6626068;28;20172;-79
2022/11/03 08:32:13;;;;;;;10.25;8.68;;;;;;;;;;6624678;28;20203;-79
2022/11/03 08:35:23;;;;;;;12.38;8.30;;;;;;;;;;6626051;28;20225;-80
2022/11/03 08:38:33;;;;;;;8.30;7.30;;;;;;;;;;6625126;28;20525;-79
2022/11/03 08:41:44;;;;;;;10.95;7.13;;;;;;;;;;6625166;28;20621;-80
2022/11/03 08:44:58;;;;;;;9.05;7.43;;;;;;;;;;6625496;28;20180;-79
2022/11/03 08:48:08;;;;;;;9.80;7.50;;;;;;;;;;6625026;28;20254;-80
2022/11/03 08:51:18;;;;;;;8.18;7.10;;;;;;;;;;6624759;28;20702;-80
2022/11/03 08:54:29;;;;;;;8.00;5.55;;;;;;;;;;6624247;28;20210;-80
2022/11/03 08:57:39;;;;;;;6.75;5.45;;;;;;;;;;6624930;28;20231;-80
2022/11/03 09:00:49;;;;;;;4.95;4.30;;;;;;;;;;6624586;28;20159;-80
2022/11/03 09:03:59;;;;;;;5.30;4.80;;;;;;;;;;6624185;28;20538;-80
2022/11/03 09:07:10;;;;;;;5.20;4.43;;;;;;;;;;6624098;28;20628;-80
2022/11/03 09:10:20;;;;;;;4.85;3.40;;;;;;;;;;6621890;28;20195;-81
2022/11/03 09:13:31;;;;;;;6.75;4.35;;;;;;;;;;6623479;28;20230;-81
2022/11/03 09:16:41;;;;;;;5.10;4.00;;;;;;;;;;6624249;28;20179;-80
2022/11/03 09:19:51;;;;;;;4.13;3.13;;;;;;;;;;6623566;28;20180;-81
2022/11/03 09:23:02;;;;;;;4.63;3.10;;;;;;;;;;6623445;28;20174;-80
2022/11/03 09:26:12;;;;;;;5.30;2.83;;;;;;;;;;6623658;28;20175;-81
2022/11/03 09:29:22;;;;;;;6.87;3.10;;;;;;;;;;6623776;28;20198;-81
2022/11/03 09:32:33;;;;;;;5.40;3.00;;;;;;;;;;6606094;28;20644;-81
2022/11/03 09:35:44;;;;;;;4.77;3.40;;;;;;;;;;6623135;28;20172;-81
2022/11/03 09:38:54;;;;;;;3.87;2.90;;;;;;;;;;6621192;28;20167;-82
2022/11/03 09:42:04;;;;;;;4.83;3.00;;;;;;;;;;6622939;28;20802;-81
2022/11/03 09:45:15;;;;;;;6.20;2.90;;;;;;;;;;6623230;28;20233;-80
2022/11/03 09:48:25;;;;;;;6.63;3.30;;;;;;;;;;6622448;28;20633;-81
2022/11/03 09:51:35;;;;;;;5.60;2.87;;;;;;;;;;6622724;28;20164;-81
2022/11/03 09:54:46;;;;;;;4.57;2.60;;;;;;;;;;6623119;28;20672;-81
2022/11/03 09:57:58;;;;;;;5.10;2.80;;;;;;;;;;6622695;28;20677;-81
2022/11/03 10:01:09;;;;;;;6.43;2.87;;;;;;;;;;6623307;28;20176;-81
2022/11/03 10:04:22;;;;;;;5.33;2.70;;;;;;;;;;6622722;28;20598;-81
2022/11/03 10:07:32;;;;;;;4.73;2.30;;;;;;;;;;6622367;28;20168;-80
2022/11/03 10:10:42;;;;;;;4.67;2.70;;;;;;;;;;6622241;28;20622;-81
2022/11/03 10:13:54;;;;;;;5.03;2.60;;;;;;;;;;6623097;28;20245;-81
2022/11/03 10:17:05;;;;;;;4.67;2.67;;;;;;;;;;6622781;28;20527;-81
2022/11/03 10:20:16;;;;;;;4.90;2.70;;;;;;;;;;6621663;28;20214;-81
2022/11/03 10:23:27;;;;;;;6.57;2.73;;;;;;;;;;6622887;28;20190;-81
2022/11/03 10:26:55;;;;;;;5.67;2.70;;;;;;;;;;6621867;28;20168;-80
2022/11/03 10:30:07;;;;;;;3.73;2.50;;;;;;;;;;6622678;28;20163;-80
2022/11/03 10:33:23;;;;;;;3.63;2.60;;;;;;;;;;6621883;28;20207;-80
2022/11/03 10:36:34;;;;;;;4.77;2.70;;;;;;;;;;6622197;28;20179;-81
2022/11/03 10:39:44;;;;;;;3.10;2.60;;;;;;;;;;6623243;28;20168;-82
2022/11/03 10:42:58;;;;;;;5.50;2.10;;;;;;;;;;6620990;28;20256;-82
2022/11/03 10:46:10;;;;;;;2.87;2.13;;;;;;;;;;6620997;28;20194;-81
2022/11/03 10:49:20;;;;;;;3.77;2.50;;;;;;;;;;6620304;28;20183;-82
2022/11/03 10:52:30;;;;;;;3.07;2.07;;;;;;;;;;6621975;28;20159;-81
2022/11/03 10:55:41;;;;;;;4.43;2.30;;;;;;;;;;6621795;28;20175;-81
2022/11/03 10:58:51;;;;;;;2.13;1.93;;;;;;;;;;6621518;28;20330;-81
2022/11/03 11:02:02;;;;;;;4.57;2.37;;;;;;;;;;6621822;28;20171;-82
2022/11/03 11:05:22;;;;;;;3.07;2.27;;;;;;;;;;6621785;28;20621;-80
2022/11/03 11:08:32;;;;;;;3.40;1.93;;;;;;;;;;6621466;28;20175;-81
2022/11/03 11:11:59;;;;;;;2.23;1.73;;;;;;;;;;6621646;28;20192;-80
2022/11/03 11:15:28;;;;;;;5.43;2.40;;;;;;;;;;6620897;28;20208;-80
2022/11/03 11:18:39;;;;;;;3.37;2.30;;;;;;;;;;6621715;28;20190;-80
2022/11/03 11:21:56;;;;;;;4.13;2.50;;;;;;;;;;6621374;28;20171;-81
2022/11/03 11:25:06;;;;;;;4.83;2.40;;;;;;;;;;6621900;28;20190;-80
2022/11/03 11:28:17;;;;;;;3.30;2.27;;;;;;;;;;6621146;28;20171;-80
2022/11/03 11:31:29;;;;;;;3.30;2.20;;;;;;;;;;6622857;28;20195;-80
2022/11/03 11:34:39;;;;;;;3.50;2.40;;;;;;;;;;6626460;28;20207;-80
2022/11/03 11:37:50;;;;;;;3.50;2.30;;;;;;;;;;6627256;28;20186;-81
2022/11/03 11:41:00;;;;;;;4.13;2.80;;;;;;;;;;6626033;28;20255;-81
2022/11/03 11:44:29;;;;;;;3.50;2.73;;;;;;;;;;6625524;28;20175;-82
2022/11/03 11:47:39;;;;;;;5.57;2.90;;;;;;;;;;6626006;28;20167;-80
2022/11/03 11:50:50;;;;;;;5.10;3.33;;;;;;;;;;6626391;28;20172;-80
2022/11/03 11:54:04;;;;;;;4.57;2.60;;;;;;;;;;6624781;28;20282;-80
2022/11/03 11:57:18;;;;;;;4.40;2.57;;;;;;;;;;6623500;28;20247;-80
2022/11/03 12:00:30;;;;;;;2.60;2.30;;;;;;;;;;6623607;28;20160;-80
2022/11/03 12:03:41;;;;;;;2.93;2.57;;;;;;;;;;6625300;28;20481;-80
2022/11/03 12:06:52;;;;;;;3.83;2.40;;;;;;;;;;6607204;28;20221;-81
2022/11/03 12:10:09;;;;;;;4.80;2.23;;;;;;;;;;6623303;28;20203;-81
2022/11/03 12:13:38;;;;;;;3.80;2.60;;;;;;;;;;6623123;28;20280;-81
2022/11/03 12:16:48;;;;;;;4.23;2.53;;;;;;;;;;6623268;28;20172;-81
2022/11/03 12:19:58;;;;;;;2.57;2.07;;;;;;;;;;6622984;28;20176;-82
2022/11/03 12:23:09;;;;;;;4.23;2.50;;;;;;;;;;6622510;28;20171;-82
2022/11/03 12:26:28;;;;;;;4.67;2.80;;;;;;;;;;6604933;28;20530;-80
2022/11/03 12:29:39;;;;;;;3.13;2.83;;;;;;;;;;6624799;28;20237;-80
2022/11/03 12:32:50;;;;;;;4.53;2.33;;;;;;;;;;6624707;28;20204;-80
2022/11/03 12:36:00;;;;;;;2.90;2.63;;;;;;;;;;6625742;28;20195;-80
2022/11/03 12:39:11;;;;;;;3.80;2.93;;;;;;;;;;6623000;28;20180;-80
2022/11/03 12:42:23;;;;;;;5.37;2.60;;;;;;;;;;6623728;28;20175;-80
2022/11/03 12:45:33;;;;;;;3.78;2.58;;;;;;;;;;6624170;28;20198;-80
2022/11/03 12:48:45;;;;;;;2.97;2.47;;;;;;;;;;6623455;28;20171;-80
2022/11/03 12:52:04;;;;;;;4.83;2.13;;;;;;;;;;6625035;28;20179;-80
2022/11/03 12:55:14;;;;;;;4.93;2.72;;;;;;;;;;6625027;28;20207;-81
2022/11/03 12:58:24;;;;;;;3.95;2.22;;;;;;;;;;6623848;28;20232;-80
2022/11/03 13:01:35;;;;;;;3.00;2.30;;;;;;;;;;6624603;28;20221;-80
2022/11/03 13:04:45;;;;;;;3.03;2.73;;;;;;;;;;6622229;28;20179;-80
2022/11/03 13:07:55;;;;;;;3.00;2.30;;;;;;;;;;6619544;28;20616;-82
2022/11/03 13:12:29;;;;;;;2.55;2.05;;;;;;;;;;6621462;28;20195;-82
2022/11/03 13:14:36;;;;;;;3.20;2.43;;;;;;;;;;6619635;28;20226;-81
2022/11/03 13:17:46;;;;;;;3.00;2.37;;;;;;;;;;6620493;28;20171;-81
2022/11/03 13:20:56;;;;;;;3.70;2.77;;;;;;;;;;6620195;28;20635;-82
2022/11/03 13:24:07;;;;;;;4.87;2.40;;;;;;;;;;6619883;28;20188;-81
2022/11/03 13:27:17;;;;;;;6.03;2.80;;;;;;;;;;6622538;28;20195;-80
2022/11/03 13:30:28;;;;;;;3.17;2.30;;;;;;;;;;6624060;28;20535;-80
2022/11/03 13:33:38;;;;;;;4.63;3.13;;;;;;;;;;6623549;28;20656;-81
2022/11/03 13:36:48;;;;;;;5.03;2.80;;;;;;;;;;6624202;28;20164;-82
2022/11/03 13:39:59;;;;;;;2.47;2.27;;;;;;;;;;6624082;28;20640;-82
2022/11/03 13:43:09;;;;;;;4.20;2.90;;;;;;;;;;6623024;28;20182;-81
2022/11/03 13:46:19;;;;;;;3.63;2.43;;;;;;;;;;6623535;28;20178;-82
2022/11/03 13:49:30;;;;;;;3.97;2.70;;;;;;;;;;6623112;28;20207;-82
2022/11/03 13:52:40;;;;;;;3.93;2.70;;;;;;;;;;6622612;28;20217;-81
2022/11/03 13:55:50;;;;;;;4.67;3.30;;;;;;;;;;6622728;28;20620;-81
2022/11/03 13:59:01;;;;;;;4.53;3.10;;;;;;;;;;6622906;28;20322;-82
2022/11/03 14:02:11;;;;;;;17.13;12.33;;;;;;;;;;6623006;28;20172;-81
2022/11/03 14:05:21;;;;;;;6.80;4.63;;;;;;;;;;6622532;28;20214;-81
2022/11/03 14:08:32;;;;;;;6.20;3.90;;;;;;;;;;6622752;28;20616;-82
2022/11/03 14:15:11;;;;;;;6.53;3.20;;;;;;;;;;6622396;28;20257;-82
2022/11/03 14:18:23;;;;;;;5.63;3.97;;;;;;;;;;6622168;28;20211;-82
2022/11/03 14:21:36;;;;;;;5.97;5.37;;;;;;;;;;6604824;28;20684;-82
2022/11/03 14:24:46;;;;;;;9.50;6.33;;;;;;;;;;6622189;28;20203;-82
2022/11/03 14:27:57;;;;;;;9.17;6.77;;;;;;;;;;6622625;28;20175;-82
2022/11/03 14:31:07;;;;;;;16.70;11.30;;;;;;;;;;6604865;28;20183;-81
2022/11/03 14:34:17;;;;;;;26.30;18.53;;;;;;;;;;6622601;28;20230;-82
2022/11/03 14:37:28;;;;;;;33.83;21.73;;;;;;;;;;6622442;28;20179;-80
2022/11/03 14:44:07;;;;;;;11.17;7.47;;;;;;;;;;6622094;28;20166;-80
2022/11/03 14:47:18;;;;;;;9.30;6.60;;;;;;;;;;6622280;28;20229;-82
2022/11/03 14:50:28;;;;;;;10.07;5.97;;;;;;;;;;6622752;28;20203;-81
2022/11/03 14:53:38;;;;;;;9.97;5.43;;;;;;;;;;6622487;28;20544;-81
2022/11/03 14:56:49;;;;;;;7.23;5.40;;;;;;;;;;6622644;28;20182;-81
2022/11/03 14:59:59;;;;;;;6.87;4.77;;;;;;;;;;6621617;28;20231;-82
2022/11/03 15:03:09;;;;;;;9.30;5.47;;;;;;;;;;6621488;28;20183;-82
2022/11/03 15:06:20;;;;;;;20.00;11.73;;;;;;;;;;6622474;28;20182;-80
2022/11/03 15:09:30;;;;;;;15.97;10.33;;;;;;;;;;6627348;28;20565;-82
2022/11/03 15:12:41;;;;;;;14.53;8.43;;;;;;;;;;6627842;28;20168;-81
2022/11/03 15:15:51;;;;;;;10.00;7.30;;;;;;;;;;6627338;28;20168;-82
2022/11/03 15:19:02;;;;;;;10.83;6.70;;;;;;;;;;6627089;28;20251;-82
2022/11/03 15:22:13;;;;;;;11.17;7.60;;;;;;;;;;6627685;28;20172;-81
2022/11/03 15:25:23;;;;;;;17.60;9.77;;;;;;;;;;6627235;28;20174;-81
2022/11/03 15:28:33;;;;;;;16.37;9.47;;;;;;;;;;6627066;28;20171;-81
2022/11/03 15:31:44;;;;;;;14.97;8.80;;;;;;;;;;6626821;28;20640;-82
2022/11/03 15:34:54;;;;;;;14.27;9.70;;;;;;;;;;6626996;28;20203;-82
2022/11/03 15:38:04;;;;;;;17.67;11.87;;;;;;;;;;6625667;28;20217;-82
2022/11/03 15:41:14;;;;;;;20.00;14.70;;;;;;;;;;6625226;28;20168;-81
2022/11/03 15:44:25;;;;;;;21.30;14.90;;;;;;;;;;6624105;28;20604;-81
2022/11/03 15:47:35;;;;;;;23.03;15.07;;;;;;;;;;6623171;28;20206;-82
2022/11/03 15:50:46;;;;;;;48.13;22.90;;;;;;;;;;7085488;22;20256;-85
2022/11/03 15:53:57;;;;;;;45.30;21.53;;;;;;;;;;6571692;28;20209;-86
2022/11/03 15:57:07;;;;;;;46.70;23.40;;;;;;;;;;6573361;28;20170;-86
2022/11/03 16:00:19;;;;;;;50.03;25.57;;;;;;;;;;6572571;28;20175;-86
2022/11/03 16:03:30;;;;;;;51.13;25.90;;;;;;;;;;6554989;28;20591;-86
2022/11/03 16:06:41;;;;;;;58.27;25.93;;;;;;;;;;6553310;28;20276;-85
2022/11/03 16:09:51;;;;;;;61.77;27.87;;;;;;;;;;6554644;28;20196;-86
2022/11/03 16:13:01;;;;;;;56.10;27.60;;;;;;;;;;6572310;28;20205;-86
2022/11/03 16:16:11;;;;;;;53.17;26.50;;;;;;;;;;6573503;28;20173;-85
2022/11/03 16:19:22;;;;;;;39.27;21.87;;;;;;;;;;6571290;28;20653;-86
2022/11/03 16:22:32;;;;;;;120.93;56.73;;;;;;;;;;6573556;28;20181;-86
2022/11/03 16:25:43;;;;;;;89.63;44.20;;;;;;;;;;6572989;28;20224;-85
2022/11/03 16:28:53;;;;;;;94.73;42.77;;;;;;;;;;6574455;28;20180;-85
2022/11/03 16:32:04;;;;;;;76.60;38.03;;;;;;;;;;6573513;28;20177;-86
2022/11/03 16:35:14;;;;;;;43.53;24.20;;;;;;;;;;6573005;28;20204;-84
2022/11/03 16:38:26;;;;;;;49.67;28.43;;;;;;;;;;6573736;28;20173;-85
2022/11/03 16:41:36;;;;;;;81.63;34.23;;;;;;;;;;6573764;28;20207;-84
2022/11/03 16:44:47;;;;;;;42.13;25.40;;;;;;;;;;6572896;28;20540;-85
2022/11/03 16:47:57;;;;;;;70.47;31.00;;;;;;;;;;6573288;28;20192;-84
2022/11/03 16:51:11;;;;;;;33.43;22.27;;;;;;;;;;6573241;28;20231;-84
2022/11/03 16:54:21;;;;;;;56.40;36.03;;;;;;;;;;6573722;28;20292;-84
2022/11/03 16:57:31;;;;;;;49.83;31.03;;;;;;;;;;6573414;28;20173;-84
2022/11/03 17:00:42;;;;;;;57.03;32.27;;;;;;;;;;6571943;28;20177;-85
2022/11/03 17:03:52;;;;;;;47.17;26.83;;;;;;;;;;6557825;28;20192;-85
2022/11/03 17:07:03;;;;;;;34.47;21.67;;;;;;;;;;6573419;28;20200;-85
2022/11/03 17:10:14;;;;;;;23.57;16.03;;;;;;;;;;6572275;28;20223;-85
2022/11/03 17:13:25;;;;;;;27.50;18.60;;;;;;;;;;6569616;28;21131;-85
2022/11/03 17:16:35;;;;;;;29.47;18.93;;;;;;;;;;6545573;28;20186;-86
2022/11/03 17:19:45;;;;;;;31.07;19.73;;;;;;;;;;6567387;28;20173;-86
2022/11/03 17:22:56;;;;;;;27.57;18.00;;;;;;;;;;6559391;28;20707;-86
2022/11/03 17:26:07;;;;;;;27.20;20.00;;;;;;;;;;6572134;28;20165;-86
2022/11/03 17:29:37;;;;;;;28.50;19.87;;;;;;;;;;6571125;28;21669;-86
2022/11/03 17:32:49;;;;;;;30.73;20.03;;;;;;;;;;6558984;28;20226;-86
2022/11/03 17:36:00;;;;;;;29.70;20.73;;;;;;;;;;6575355;28;20220;-86
2022/11/03 17:39:13;;;;;;;38.20;24.93;;;;;;;;;;6571690;28;20644;-86
2022/11/03 17:42:25;;;;;;;43.57;31.50;;;;;;;;;;6570762;28;20177;-88
2022/11/03 17:45:35;;;;;;;33.73;21.57;;;;;;;;;;6568329;28;20212;-87
2022/11/03 17:48:46;;;;;;;33.93;21.80;;;;;;;;;;6559151;28;20239;-87
2022/11/03 17:51:58;;;;;;;32.60;21.17;;;;;;;;;;6571859;28;20241;-86
2022/11/03 17:55:15;;;;;;;35.37;25.17;;;;;;;;;;6571749;28;20205;-86
2022/11/03 17:58:27;;;;;;;39.67;24.70;;;;;;;;;;6571244;28;20524;-87
2022/11/03 18:01:38;;;;;;;45.93;28.33;;;;;;;;;;6571581;28;20169;-87
2022/11/03 18:04:50;;;;;;;42.93;26.10;;;;;;;;;;6557382;28;20205;-88
2022/11/03 18:08:01;;;;;;;40.87;24.67;;;;;;;;;;6545527;28;20224;-87
2022/11/03 18:13:15;;;;;;;40.47;24.33;;;;;;;;;;6556555;28;20240;-87
2022/11/03 18:14:43;;;;;;;39.70;24.67;;;;;;;;;;6569652;28;20239;-86
2022/11/03 18:17:53;;;;;;;40.10;24.27;;;;;;;;;;6570497;28;20184;-86
2022/11/03 18:21:04;;;;;;;33.17;22.67;;;;;;;;;;6557316;28;20638;-87
2022/11/03 18:24:18;;;;;;;44.67;29.63;;;;;;;;;;6548922;28;20177;-88
2022/11/03 18:27:29;;;;;;;34.73;22.53;;;;;;;;;;6545564;28;20757;-86
2022/11/03 18:30:41;;;;;;;40.33;25.67;;;;;;;;;;6543126;28;20169;-87
2022/11/03 18:33:52;;;;;;;38.30;24.63;;;;;;;;;;6563086;28;20255;-85
2022/11/03 18:37:03;;;;;;;38.23;24.13;;;;;;;;;;6586709;28;20181;-86
2022/11/03 18:40:13;;;;;;;36.13;23.70;;;;;;;;;;6606511;28;20176;-85
2022/11/03 18:43:24;;;;;;;33.90;22.03;;;;;;;;;;6587977;28;20212;-85
2022/11/03 18:46:34;;;;;;;31.27;20.47;;;;;;;;;;6579385;28;20176;-85
2022/11/03 18:49:46;;;;;;;37.40;24.90;;;;;;;;;;6570255;28;20247;-84
2022/11/03 18:52:56;;;;;;;36.43;23.33;;;;;;;;;;6568527;28;20619;-85
2022/11/03 18:56:12;;;;;;;38.33;25.17;;;;;;;;;;6570489;28;20181;-86
2022/11/03 18:59:26;;;;;;;39.20;25.10;;;;;;;;;;6572462;28;20235;-86
2022/11/03 19:02:36;;;;;;;42.07;25.47;;;;;;;;;;6567179;28;20181;-85
2022/11/03 19:05:48;;;;;;;44.03;27.27;;;;;;;;;;6575719;28;20185;-85
2022/11/03 19:08:59;;;;;;;42.17;27.83;;;;;;;;;;6575840;28;20283;-85
2022/11/03 19:12:10;;;;;;;42.07;26.93;;;;;;;;;;6579984;28;20181;-86
2022/11/03 19:15:24;;;;;;;42.20;26.93;;;;;;;;;;6581348;28;20228;-86
2022/11/03 19:18:35;;;;;;;39.20;27.00;;;;;;;;;;6579642;28;20520;-86
2022/11/03 19:21:46;;;;;;;34.87;23.27;;;;;;;;;;6582245;28;20192;-85